Terminal Aerodrome Forecast
Issued by NWS Birmingham, AL

Home | Current Version | Previous Version | Text Only | Print | Product List | Glossary On
Versions: 1 2 3 4 5 6 7 8 9 10 11 12 13 14 15 16
000
FTUS44 KBMX 232341
TAFBHM
TAF
KBHM 232341Z 2400/2424 14008G16KT P6SM SCT050
     FM240900 14010G17KT P6SM BKN035
     FM241300 15011G19KT P6SM BKN040=

USA.gov is the U.S. government's official web portal to all federal, state and local government web resources and services.